Time;durP1;ratioP1;P1;durP2;ratioP2;P2;SDS_P1;SDS_P2;PMS_P1;PMS_P2;Temp;Humidity;BMP_temperature;BMP_pressure;BME280_temperature;BME280_humidity;BME280_pressure;Samples;Min_cycle;Max_cycle;Signal;HPM_P1;HPM_P2
2024/03/22 00:00:21;;;;;;;41.63;24.80;;;11.70;96.70;;;;;;5027889;28;20030;-80
2024/03/22 00:02:47;;;;;;;40.80;25.23;;;11.70;97.00;;;;;;5011583;28;20034;-78
2024/03/22 00:05:12;;;;;;;46.03;26.50;;;11.80;97.20;;;;;;5011637;28;20025;-79
2024/03/22 00:07:39;;;;;;;44.28;24.77;;;11.80;97.20;;;;;;5011578;28;20015;-80
2024/03/22 00:10:06;;;;;;;45.33;25.75;;;11.80;97.20;;;;;;5014917;28;20026;-79
2024/03/22 00:12:32;;;;;;;45.15;24.58;;;11.90;97.50;;;;;;5023833;28;20025;-78
2024/03/22 00:14:57;;;;;;;45.60;24.40;;;11.80;97.60;;;;;;5030890;28;20033;-78
2024/03/22 00:17:23;;;;;;;42.63;25.25;;;11.90;98.10;;;;;;5030669;28;20020;-78
2024/03/22 00:19:49;;;;;;;46.00;26.25;;;11.90;98.10;;;;;;5019075;28;20030;-78
2024/03/22 00:22:17;;;;;;;44.30;25.02;;;11.90;98.40;;;;;;5031025;28;20025;-78
2024/03/22 00:24:43;;;;;;;44.38;24.60;;;11.90;98.20;;;;;;5025551;28;20029;-78
2024/03/22 00:27:11;;;;;;;41.20;25.02;;;11.90;98.40;;;;;;5014427;28;20038;-77
2024/03/22 00:29:37;;;;;;;46.53;26.20;;;12.00;98.60;;;;;;5014115;28;20059;-78
2024/03/22 00:32:02;;;;;;;45.35;27.85;;;12.00;98.90;;;;;;5026543;28;20026;-78
2024/03/22 00:34:28;;;;;;;49.20;27.60;;;12.00;99.00;;;;;;5014774;28;20018;-78
2024/03/22 00:36:54;;;;;;;42.80;26.48;;;12.00;99.10;;;;;;5015998;28;20022;-78
2024/03/22 00:39:19;;;;;;;48.67;28.17;;;12.00;99.50;;;;;;5016665;28;20044;-79
2024/03/22 00:41:45;;;;;;;49.92;27.92;;;12.00;99.70;;;;;;5030886;28;20026;-77
2024/03/22 00:44:10;;;;;;;46.65;25.90;;;12.00;99.90;;;;;;5016031;28;20470;-80
2024/03/22 00:46:36;;;;;;;47.95;25.98;;;12.00;99.90;;;;;;5016072;28;20018;-78
2024/03/22 00:49:02;;;;;;;41.78;24.52;;;12.00;99.80;;;;;;5014593;28;20022;-80
2024/03/22 00:51:28;;;;;;;42.67;24.00;;;12.00;99.90;;;;;;5015517;28;20022;-80
2024/03/22 00:53:54;;;;;;;48.70;26.25;;;12.00;99.90;;;;;;5015664;28;20030;-78
2024/03/22 00:56:19;;;;;;;49.40;27.77;;;12.00;99.90;;;;;;5014366;28;20033;-80
2024/03/22 00:58:45;;;;;;;48.17;27.67;;;12.00;99.90;;;;;;5026394;28;20022;-79
2024/03/22 01:01:11;;;;;;;43.00;25.23;;;12.10;99.90;;;;;;5026672;28;20381;-77
2024/03/22 01:03:36;;;;;;;47.13;25.40;;;12.10;99.90;;;;;;5023231;28;20446;-78
2024/03/22 01:06:02;;;;;;;45.10;24.30;;;12.00;99.90;;;;;;5018847;28;20053;-80
2024/03/22 01:08:28;;;;;;;42.28;23.88;;;12.00;99.90;;;;;;5017624;28;20076;-80
2024/03/22 01:10:54;;;;;;;45.10;24.70;;;12.00;99.90;;;;;;5022577;28;20030;-79
2024/03/22 01:13:19;;;;;;;48.45;26.52;;;12.00;99.90;;;;;;5014134;28;20060;-79
2024/03/22 01:15:46;;;;;;;44.40;25.40;;;12.00;99.90;;;;;;5014153;28;20393;-80
2024/03/22 01:18:12;;;;;;;41.13;23.92;;;12.00;99.90;;;;;;5015532;28;20073;-80
2024/03/22 01:20:38;;;;;;;43.90;25.38;;;12.00;99.90;;;;;;5030764;28;20355;-80
2024/03/22 01:23:04;;;;;;;54.47;27.58;;;12.00;99.90;;;;;;5013617;28;20767;-80
2024/03/22 01:25:30;;;;;;;46.67;26.67;;;12.00;99.90;;;;;;5014778;28;20018;-80
2024/03/22 01:27:56;;;;;;;45.13;25.20;;;12.00;99.90;;;;;;5030269;28;20048;-79
2024/03/22 01:30:22;;;;;;;47.83;26.38;;;12.00;99.90;;;;;;5013924;28;20029;-80
2024/03/22 01:32:48;;;;;;;47.88;26.80;;;12.00;99.90;;;;;;5013315;28;20113;-80
2024/03/22 01:35:13;;;;;;;47.85;28.00;;;12.00;99.90;;;;;;5015129;28;20057;-79
2024/03/22 01:37:39;;;;;;;52.60;27.55;;;12.00;99.90;;;;;;5021442;28;20026;-80
2024/03/22 01:40:05;;;;;;;49.97;26.83;;;12.00;99.90;;;;;;5031238;28;20045;-79
2024/03/22 01:42:31;;;;;;;48.45;26.90;;;12.00;99.90;;;;;;5018408;28;20092;-79
2024/03/22 01:44:57;;;;;;;51.78;27.13;;;12.00;99.90;;;;;;5029845;28;20417;-79
2024/03/22 01:47:23;;;;;;;44.30;26.27;;;12.00;99.90;;;;;;5013329;28;20084;-79
2024/03/22 01:49:52;;;;;;;48.53;27.17;;;11.90;99.90;;;;;;5017038;28;20096;-79
2024/03/22 01:52:17;;;;;;;42.20;24.83;;;12.00;99.90;;;;;;5023580;28;20049;-79
2024/03/22 01:54:43;;;;;;;47.75;27.35;;;11.90;99.90;;;;;;5014555;28;20065;-79
2024/03/22 01:57:09;;;;;;;48.53;26.85;;;11.90;99.90;;;;;;5020050;28;20037;-80
2024/03/22 01:59:35;;;;;;;49.88;29.00;;;11.90;99.90;;;;;;5029394;28;20014;-79
2024/03/22 02:02:02;;;;;;;54.78;28.02;;;11.90;99.90;;;;;;5013025;28;20034;-79
2024/03/22 02:04:28;;;;;;;47.47;27.38;;;11.90;99.90;;;;;;5013285;28;20561;-79
2024/03/22 02:06:53;;;;;;;45.90;27.05;;;11.90;99.90;;;;;;5013594;28;20034;-79
2024/03/22 02:09:20;;;;;;;45.33;26.88;;;11.90;99.90;;;;;;5012926;28;20022;-79
2024/03/22 02:11:47;;;;;;;47.95;27.42;;;11.90;99.90;;;;;;5014885;28;20026;-80
2024/03/22 02:14:13;;;;;;;48.40;26.65;;;11.90;99.90;;;;;;5015747;28;20029;-79
2024/03/22 02:16:40;;;;;;;50.22;28.80;;;11.90;99.90;;;;;;5022074;28;20026;-79
2024/03/22 02:19:06;;;;;;;50.53;28.88;;;11.90;99.90;;;;;;5023061;28;20096;-79
2024/03/22 02:21:32;;;;;;;51.92;28.85;;;11.90;99.90;;;;;;5015033;28;20030;-79
2024/03/22 02:23:57;;;;;;;46.65;28.15;;;11.80;99.90;;;;;;5012622;28;20093;-79
2024/03/22 02:26:23;;;;;;;48.72;28.33;;;11.80;99.90;;;;;;5014132;28;20022;-79
2024/03/22 02:28:48;;;;;;;48.50;27.52;;;11.90;99.90;;;;;;5029396;28;20050;-80
2024/03/22 02:31:14;;;;;;;47.75;26.35;;;11.90;99.90;;;;;;5029807;28;20053;-79
2024/03/22 02:33:40;;;;;;;46.05;25.65;;;11.90;99.90;;;;;;5032457;28;20017;-80
2024/03/22 02:36:06;;;;;;;45.45;26.58;;;11.90;99.90;;;;;;5030650;28;20056;-79
2024/03/22 02:38:31;;;;;;;47.63;27.35;;;11.90;99.90;;;;;;5019497;28;20022;-79
2024/03/22 02:40:58;;;;;;;41.67;24.35;;;11.90;99.90;;;;;;5012543;28;20057;-79
2024/03/22 02:43:24;;;;;;;49.90;28.75;;;11.90;99.90;;;;;;5029231;28;20037;-79
2024/03/22 02:45:49;;;;;;;50.15;27.83;;;11.90;99.90;;;;;;5012519;28;20029;-80
2024/03/22 02:48:15;;;;;;;48.78;27.25;;;11.90;99.90;;;;;;5013454;28;20528;-79
2024/03/22 02:50:41;;;;;;;48.58;28.50;;;11.90;99.90;;;;;;5030228;28;20021;-79
2024/03/22 02:53:07;;;;;;;51.20;29.67;;;11.90;99.90;;;;;;5019767;28;20049;-80
2024/03/22 02:55:38;;;;;;;50.17;29.92;;;11.90;99.90;;;;;;5028704;28;20026;-79
2024/03/22 02:58:03;;;;;;;51.40;29.08;;;11.90;99.90;;;;;;5028705;28;20422;-79
2024/03/22 03:00:29;;;;;;;50.60;28.23;;;11.80;99.90;;;;;;5014728;28;20028;-79
2024/03/22 03:02:55;;;;;;;51.90;30.70;;;11.90;99.90;;;;;;5027878;28;20121;-79
2024/03/22 03:05:21;;;;;;;50.10;29.75;;;11.90;99.90;;;;;;5021864;28;20018;-79
2024/03/22 03:07:47;;;;;;;51.20;28.70;;;11.80;99.90;;;;;;5031500;28;20164;-79
2024/03/22 03:10:12;;;;;;;50.95;28.73;;;11.90;99.90;;;;;;5031834;28;20481;-79
2024/03/22 03:12:38;;;;;;;51.63;28.10;;;11.80;99.90;;;;;;5031935;28;20029;-79
2024/03/22 03:15:04;;;;;;;47.65;28.42;;;11.90;99.90;;;;;;5031614;28;20109;-79
2024/03/22 03:17:29;;;;;;;49.35;29.33;;;11.80;99.90;;;;;;5031641;28;20492;-79
2024/03/22 03:19:55;;;;;;;48.53;28.73;;;11.80;99.90;;;;;;5031601;28;20016;-80
2024/03/22 03:22:21;;;;;;;46.30;27.63;;;11.80;99.90;;;;;;5031411;28;20113;-79
2024/03/22 03:24:46;;;;;;;49.05;31.20;;;11.80;99.90;;;;;;5030698;28;20608;-80
2024/03/22 03:27:12;;;;;;;47.00;29.10;;;11.80;99.90;;;;;;5024726;28;20048;-79
2024/03/22 03:29:37;;;;;;;50.20;29.77;;;11.80;99.90;;;;;;5029309;28;20016;-80
2024/03/22 03:32:03;;;;;;;54.20;29.70;;;11.80;99.90;;;;;;5021346;28;20030;-79
2024/03/22 03:34:29;;;;;;;50.88;28.40;;;11.80;99.90;;;;;;5011654;28;20022;-79
2024/03/22 03:36:55;;;;;;;48.47;28.70;;;11.80;99.90;;;;;;5011502;28;20481;-80
2024/03/22 03:39:21;;;;;;;45.53;28.48;;;11.80;99.90;;;;;;5028067;28;20050;-79
2024/03/22 03:41:46;;;;;;;52.78;29.70;;;11.80;99.90;;;;;;5013545;28;20058;-79
2024/03/22 03:44:12;;;;;;;44.70;26.42;;;11.80;99.90;;;;;;5011750;28;20025;-80
2024/03/22 03:46:37;;;;;;;48.67;26.67;;;11.80;99.90;;;;;;5012743;28;20033;-79
2024/03/22 03:49:03;;;;;;;46.60;26.80;;;11.80;99.90;;;;;;5016962;28;20028;-79
2024/03/22 03:51:29;;;;;;;46.33;26.90;;;11.80;99.90;;;;;;5027442;28;20505;-79
2024/03/22 03:53:54;;;;;;;47.85;27.20;;;11.80;99.90;;;;;;5011394;28;20023;-79
2024/03/22 03:56:20;;;;;;;50.03;29.58;;;11.80;99.90;;;;;;5028830;28;20026;-79
2024/03/22 03:58:46;;;;;;;47.13;28.38;;;11.80;99.90;;;;;;5012691;28;20574;-79
2024/03/22 04:01:12;;;;;;;47.22;28.27;;;11.80;99.90;;;;;;5014773;28;20474;-80
2024/03/22 04:03:37;;;;;;;46.17;27.58;;;11.80;99.90;;;;;;5023041;28;20048;-79
2024/03/22 04:06:03;;;;;;;46.08;28.48;;;11.80;99.90;;;;;;5031484;28;20029;-79
2024/03/22 04:08:30;;;;;;;44.72;26.80;;;11.90;99.90;;;;;;5024512;28;20026;-79
2024/03/22 04:10:57;;;;;;;45.55;27.33;;;11.90;99.90;;;;;;5020374;28;20033;-79
2024/03/22 04:13:24;;;;;;;44.47;27.45;;;11.90;99.90;;;;;;5023210;28;20022;-79
2024/03/22 04:15:49;;;;;;;41.78;25.77;;;11.90;99.90;;;;;;5027260;28;20033;-79
2024/03/22 04:18:15;;;;;;;49.70;29.70;;;11.90;99.90;;;;;;5016436;28;20025;-79
2024/03/22 04:20:40;;;;;;;46.38;26.60;;;11.90;99.90;;;;;;5031496;28;20026;-79
2024/03/22 04:23:06;;;;;;;43.05;26.10;;;11.90;99.90;;;;;;5016321;28;20478;-79
2024/03/22 04:25:32;;;;;;;43.97;27.77;;;11.90;99.90;;;;;;5014952;28;20033;-79
2024/03/22 04:27:57;;;;;;;46.75;27.88;;;11.90;99.90;;;;;;5027243;28;20113;-79
2024/03/22 04:30:23;;;;;;;44.83;26.25;;;11.80;99.90;;;;;;5017241;28;20164;-80
2024/03/22 04:32:49;;;;;;;41.70;25.80;;;11.90;99.90;;;;;;5024740;28;20592;-79
2024/03/22 04:35:14;;;;;;;46.33;28.17;;;11.90;99.90;;;;;;5014616;28;20521;-79
2024/03/22 04:37:40;;;;;;;51.22;29.02;;;11.90;99.90;;;;;;5031039;28;20497;-79
2024/03/22 04:40:06;;;;;;;44.90;28.13;;;11.90;99.90;;;;;;5014337;28;20085;-79
2024/03/22 04:42:32;;;;;;;48.40;30.08;;;11.80;99.90;;;;;;5015440;28;20371;-79
2024/03/22 04:44:58;;;;;;;47.75;29.58;;;11.90;99.90;;;;;;5016170;28;20076;-79
2024/03/22 04:47:23;;;;;;;55.08;31.42;;;11.80;99.90;;;;;;5031299;28;20028;-79
2024/03/22 04:49:49;;;;;;;50.88;30.33;;;11.80;99.90;;;;;;5015469;28;20478;-79
2024/03/22 04:52:15;;;;;;;45.03;28.48;;;11.80;99.90;;;;;;5014674;28;20023;-79
2024/03/22 04:54:40;;;;;;;50.40;31.00;;;11.80;99.90;;;;;;5014583;28;20018;-79
2024/03/22 04:57:06;;;;;;;49.15;29.13;;;11.70;99.90;;;;;;5014453;28;20022;-78
2024/03/22 04:59:31;;;;;;;51.40;30.27;;;11.70;99.90;;;;;;5014396;28;20106;-81
2024/03/22 05:01:57;;;;;;;55.70;31.15;;;11.70;99.90;;;;;;5014074;28;20025;-79
2024/03/22 05:04:23;;;;;;;49.58;27.63;;;11.70;99.90;;;;;;5017329;28;20018;-79
2024/03/22 05:06:48;;;;;;;49.20;29.00;;;11.70;99.90;;;;;;5023274;28;20065;-79
2024/03/22 05:09:14;;;;;;;49.30;29.27;;;11.70;99.90;;;;;;5015873;28;20025;-79
2024/03/22 05:11:40;;;;;;;47.78;29.38;;;11.60;99.90;;;;;;5031286;28;20079;-79
2024/03/22 05:14:05;;;;;;;48.22;28.75;;;11.60;99.90;;;;;;5015096;28;20014;-78
2024/03/22 05:16:31;;;;;;;45.05;27.63;;;11.60;99.90;;;;;;5013512;28;20025;-79
2024/03/22 05:18:56;;;;;;;44.47;25.17;;;11.60;99.90;;;;;;5016108;28;20482;-79
2024/03/22 05:21:22;;;;;;;45.75;26.25;;;11.60;99.90;;;;;;5030135;28;20026;-79
2024/03/22 05:23:48;;;;;;;44.10;25.60;;;11.50;99.90;;;;;;5013358;28;20068;-79
2024/03/22 05:26:13;;;;;;;42.67;24.75;;;11.50;99.90;;;;;;5028340;28;20046;-79
2024/03/22 05:28:39;;;;;;;41.05;26.48;;;11.50;99.90;;;;;;5030531;28;20025;-79
2024/03/22 05:31:05;;;;;;;42.08;24.75;;;11.50;99.90;;;;;;5020299;28;20050;-79
2024/03/22 05:33:32;;;;;;;39.33;24.00;;;11.50;99.90;;;;;;5028380;28;20079;-79
2024/03/22 05:35:57;;;;;;;38.67;24.27;;;11.50;99.90;;;;;;5022029;28;20482;-79
2024/03/22 05:38:23;;;;;;;43.17;25.15;;;11.40;99.90;;;;;;5012127;28;20030;-78
2024/03/22 05:40:48;;;;;;;42.08;24.55;;;11.50;99.90;;;;;;5030376;28;20037;-78
2024/03/22 05:43:14;;;;;;;40.20;24.45;;;11.40;99.90;;;;;;5020676;28;20033;-79
2024/03/22 05:45:40;;;;;;;39.28;23.65;;;11.40;99.90;;;;;;5030134;28;20358;-79
2024/03/22 05:48:06;;;;;;;33.95;21.48;;;11.40;99.90;;;;;;5013329;28;20029;-79
2024/03/22 05:50:31;;;;;;;39.13;23.05;;;11.30;99.90;;;;;;5013416;28;20073;-78
2024/03/22 05:52:57;;;;;;;41.50;25.52;;;11.30;99.90;;;;;;5019211;28;20028;-78
2024/03/22 05:55:22;;;;;;;39.00;23.45;;;11.30;99.90;;;;;;5032273;28;20087;-78
2024/03/22 05:57:49;;;;;;;38.38;24.02;;;11.30;99.90;;;;;;5034507;28;20060;-79
2024/03/22 06:00:15;;;;;;;41.20;24.42;;;11.30;99.90;;;;;;5034240;28;20026;-79
2024/03/22 06:02:40;;;;;;;41.47;24.08;;;11.30;99.90;;;;;;5032368;28;20052;-79
2024/03/22 06:05:06;;;;;;;42.55;25.27;;;11.30;99.90;;;;;;5032917;28;20049;-79
2024/03/22 06:07:40;;;;;;;39.05;24.55;;;11.30;99.90;;;;;;5033062;28;20508;-79
2024/03/22 06:10:06;;;;;;;45.40;24.02;;;11.30;99.90;;;;;;5032699;28;20075;-79
2024/03/22 06:12:32;;;;;;;39.13;22.65;;;11.20;99.90;;;;;;5034306;28;20049;-78
2024/03/22 06:14:57;;;;;;;41.28;23.05;;;11.30;99.90;;;;;;5032676;28;20382;-79
2024/03/22 06:17:23;;;;;;;35.50;21.45;;;11.30;99.90;;;;;;5033544;28;20017;-78
2024/03/22 06:19:49;;;;;;;36.55;22.27;;;11.20;99.90;;;;;;5030423;28;20031;-79
2024/03/22 06:22:14;;;;;;;37.50;22.15;;;11.30;99.90;;;;;;5029018;28;20030;-80
2024/03/22 06:24:40;;;;;;;37.50;23.38;;;11.30;99.90;;;;;;5020740;28;20440;-78
2024/03/22 06:27:05;;;;;;;38.22;23.83;;;11.20;99.90;;;;;;5025449;28;20029;-78
2024/03/22 06:29:31;;;;;;;35.25;20.60;;;11.30;99.90;;;;;;5014300;28;20030;-78
2024/03/22 06:31:57;;;;;;;34.92;20.77;;;11.30;99.90;;;;;;5022155;28;20640;-79
2024/03/22 06:34:22;;;;;;;35.70;22.10;;;11.30;99.90;;;;;;5028999;28;20022;-78
2024/03/22 06:36:48;;;;;;;35.80;21.73;;;11.30;99.90;;;;;;5014560;28;20025;-79
2024/03/22 06:39:14;;;;;;;34.60;21.00;;;11.30;99.90;;;;;;5020169;28;20072;-78
2024/03/22 06:41:40;;;;;;;32.30;19.65;;;11.30;99.90;;;;;;5027121;28;20034;-79
2024/03/22 06:44:05;;;;;;;32.05;19.20;;;11.30;99.90;;;;;;5026405;28;20022;-79
2024/03/22 06:46:31;;;;;;;33.28;20.40;;;11.30;99.90;;;;;;5026766;28;20057;-78
2024/03/22 06:48:58;;;;;;;33.92;20.08;;;11.30;99.90;;;;;;5022476;28;20014;-78
2024/03/22 06:51:24;;;;;;;33.22;19.30;;;11.30;99.90;;;;;;5018974;28;20060;-79
2024/03/22 06:53:51;;;;;;;34.60;20.70;;;11.30;99.90;;;;;;5015591;28;20065;-78
2024/03/22 06:56:16;;;;;;;34.30;21.13;;;11.40;99.90;;;;;;5031159;28;20033;-79
2024/03/22 06:58:43;;;;;;;36.13;21.98;;;11.30;99.90;;;;;;5018003;28;20386;-79
2024/03/22 07:01:09;;;;;;;35.70;20.92;;;11.40;99.90;;;;;;5028407;28;20026;-78
2024/03/22 07:03:35;;;;;;;37.85;22.67;;;11.40;99.90;;;;;;5013611;28;20546;-79
2024/03/22 07:06:00;;;;;;;34.90;21.05;;;11.40;99.90;;;;;;5013950;28;20382;-79
2024/03/22 07:08:26;;;;;;;33.83;20.15;;;11.40;99.90;;;;;;5020778;28;20470;-78
2024/03/22 07:10:53;;;;;;;32.53;19.60;;;11.40;99.90;;;;;;5013273;28;20026;-78
2024/03/22 07:13:19;;;;;;;36.22;21.90;;;11.40;99.90;;;;;;5012884;28;20026;-79
2024/03/22 07:15:47;;;;;;;32.65;21.45;;;11.40;99.90;;;;;;5012861;28;20501;-79
2024/03/22 07:18:13;;;;;;;32.30;18.63;;;11.50;99.90;;;;;;5013314;28;20547;-79
2024/03/22 07:20:38;;;;;;;35.28;21.00;;;11.50;99.90;;;;;;5027907;28;20048;-78
2024/03/22 07:23:04;;;;;;;29.30;18.88;;;11.50;99.90;;;;;;5017962;28;20037;-79
2024/03/22 07:25:30;;;;;;;28.95;18.17;;;11.50;99.90;;;;;;5028977;28;20106;-78
2024/03/22 07:27:56;;;;;;;34.88;19.67;;;11.60;99.90;;;;;;5032582;28;20030;-78
2024/03/22 07:30:21;;;;;;;31.98;19.10;;;11.60;99.90;;;;;;5031185;28;20478;-78
2024/03/22 07:32:47;;;;;;;32.38;19.48;;;11.70;99.90;;;;;;5031224;28;20083;-78
2024/03/22 07:35:13;;;;;;;30.48;18.10;;;11.80;99.90;;;;;;5031508;28;20385;-79
2024/03/22 07:37:39;;;;;;;31.80;20.02;;;11.80;99.90;;;;;;5027971;28;20017;-79
2024/03/22 07:40:05;;;;;;;32.42;20.05;;;11.80;99.90;;;;;;5020127;28;20046;-80
2024/03/22 07:42:31;;;;;;;28.13;18.92;;;11.90;99.90;;;;;;5027776;28;20026;-78
2024/03/22 07:44:56;;;;;;;30.77;20.50;;;11.80;99.90;;;;;;5011776;28;20038;-79
2024/03/22 07:47:22;;;;;;;34.33;20.20;;;11.80;99.90;;;;;;5015751;28;20030;-79
2024/03/22 07:49:47;;;;;;;25.60;17.73;;;11.80;99.90;;;;;;5019317;28;20034;-79
2024/03/22 07:52:13;;;;;;;29.55;18.33;;;11.80;99.90;;;;;;5011487;28;20469;-78
2024/03/22 07:54:39;;;;;;;30.23;19.27;;;11.80;99.90;;;;;;5016543;28;20065;-77
2024/03/22 07:57:04;;;;;;;35.20;20.95;;;11.80;99.90;;;;;;5027881;28;20030;-77
2024/03/22 07:59:30;;;;;;;35.95;21.35;;;11.80;99.90;;;;;;5027615;28;20018;-77
2024/03/22 08:01:57;;;;;;;31.50;20.45;;;11.80;99.90;;;;;;5016000;28;20394;-78
2024/03/22 08:04:23;;;;;;;36.88;22.42;;;11.80;99.90;;;;;;5028102;28;20486;-77
2024/03/22 08:06:50;;;;;;;37.20;21.63;;;11.80;99.90;;;;;;5014615;28;20032;-77
2024/03/22 08:09:17;;;;;;;40.45;23.08;;;11.80;99.90;;;;;;5021985;28;20050;-77
2024/03/22 08:11:43;;;;;;;37.17;23.95;;;11.80;99.90;;;;;;5024117;28;20481;-78
2024/03/22 08:14:09;;;;;;;34.47;22.40;;;11.80;99.90;;;;;;5031100;28;20079;-78
2024/03/22 08:16:34;;;;;;;37.90;23.48;;;11.80;99.90;;;;;;5031208;28;20025;-78
2024/03/22 08:19:00;;;;;;;37.63;24.08;;;11.80;99.90;;;;;;5030288;28;20029;-77
2024/03/22 08:21:26;;;;;;;35.08;21.98;;;11.80;99.90;;;;;;5027839;28;20040;-77
2024/03/22 08:23:52;;;;;;;42.55;23.30;;;11.80;99.90;;;;;;5011215;28;20080;-77
2024/03/22 08:26:18;;;;;;;43.88;24.70;;;11.80;99.90;;;;;;5015194;28;20026;-77
2024/03/22 08:28:45;;;;;;;40.83;26.50;;;11.80;99.90;;;;;;5024532;28;20505;-77
2024/03/22 08:31:11;;;;;;;36.40;23.45;;;11.80;99.90;;;;;;5013072;28;20030;-78
2024/03/22 08:33:36;;;;;;;39.63;24.52;;;11.80;99.90;;;;;;5012544;28;20029;-77
2024/03/22 08:36:02;;;;;;;43.22;25.30;;;11.80;99.90;;;;;;5021613;28;20052;-78
2024/03/22 08:38:28;;;;;;;39.20;25.15;;;11.80;99.90;;;;;;5011058;28;20084;-78
2024/03/22 08:40:53;;;;;;;40.30;24.92;;;11.80;99.90;;;;;;5023226;28;20042;-77
2024/03/22 08:43:21;;;;;;;46.08;28.33;;;11.80;99.90;;;;;;5027753;28;20112;-78
2024/03/22 08:45:47;;;;;;;43.30;27.80;;;11.80;99.90;;;;;;5021253;28;20032;-77
2024/03/22 08:48:13;;;;;;;46.60;27.88;;;11.80;99.90;;;;;;5013055;28;20018;-76
2024/03/22 08:50:38;;;;;;;45.25;27.77;;;11.80;99.90;;;;;;5021609;28;20030;-76
2024/03/22 08:53:05;;;;;;;50.15;29.20;;;11.80;99.90;;;;;;5033492;28;20025;-77
2024/03/22 08:55:31;;;;;;;49.88;30.40;;;11.80;99.90;;;;;;5016192;28;20553;-78
2024/03/22 08:57:57;;;;;;;49.85;31.92;;;11.80;99.90;;;;;;5024495;28;20033;-79
2024/03/22 09:00:22;;;;;;;51.08;31.58;;;11.70;99.90;;;;;;5019151;28;20026;-80
2024/03/22 09:02:49;;;;;;;49.13;29.15;;;11.70;99.90;;;;;;5024860;28;20430;-78
2024/03/22 09:05:15;;;;;;;49.38;30.48;;;11.70;99.90;;;;;;5026099;28;20029;-78
2024/03/22 09:07:40;;;;;;;47.67;31.92;;;11.70;99.90;;;;;;5022935;28;20539;-78
2024/03/22 09:10:06;;;;;;;48.30;29.95;;;11.70;99.90;;;;;;5015207;28;20025;-77
2024/03/22 09:12:32;;;;;;;49.33;29.65;;;11.60;99.90;;;;;;5015318;28;20048;-78
2024/03/22 09:14:58;;;;;;;40.78;26.25;;;11.60;99.90;;;;;;5014256;28;20478;-78
2024/03/22 09:17:23;;;;;;;44.08;27.95;;;11.70;99.90;;;;;;5019602;28;20033;-77
2024/03/22 09:19:49;;;;;;;46.78;28.35;;;11.70;99.90;;;;;;5020678;28;20033;-77
2024/03/22 09:22:17;;;;;;;45.60;28.80;;;11.70;99.90;;;;;;5020360;28;20030;-79
2024/03/22 09:24:43;;;;;;;48.65;27.98;;;11.70;99.90;;;;;;5024498;28;20119;-78
2024/03/22 09:27:10;;;;;;;51.72;30.00;;;11.60;99.90;;;;;;5030973;28;20081;-78
2024/03/22 09:29:38;;;;;;;48.65;28.60;;;11.60;99.90;;;;;;5028354;28;20022;-77
2024/03/22 09:32:04;;;;;;;50.03;30.42;;;11.60;99.90;;;;;;5019435;28;20026;-78
2024/03/22 09:34:30;;;;;;;48.00;29.67;;;11.60;99.90;;;;;;5013549;28;20508;-79
2024/03/22 09:36:56;;;;;;;49.60;28.80;;;11.60;99.90;;;;;;5030195;28;20377;-77
2024/03/22 09:39:22;;;;;;;47.20;27.20;;;11.60;99.90;;;;;;5029785;28;20033;-78
2024/03/22 09:41:50;;;;;;;42.10;26.48;;;11.60;99.90;;;;;;5014191;28;20029;-77
2024/03/22 09:44:18;;;;;;;49.00;29.15;;;11.60;99.90;;;;;;5013317;28;20045;-78
2024/03/22 09:46:46;;;;;;;44.35;26.25;;;11.70;99.90;;;;;;5021862;28;20369;-77
2024/03/22 09:49:12;;;;;;;48.65;29.27;;;11.70;99.90;;;;;;5032552;28;20390;-77
2024/03/22 09:51:39;;;;;;;46.75;27.63;;;11.70;99.90;;;;;;5026952;28;20056;-77
2024/03/22 09:54:05;;;;;;;40.03;25.05;;;11.70;99.90;;;;;;5031769;28;20041;-78
2024/03/22 09:56:31;;;;;;;48.97;28.40;;;11.70;99.90;;;;;;5022659;28;20498;-78
2024/03/22 09:58:58;;;;;;;41.05;25.85;;;11.70;99.90;;;;;;5029358;28;20040;-78
2024/03/22 10:01:24;;;;;;;43.78;27.40;;;11.70;99.90;;;;;;5026859;28;20108;-80
2024/03/22 10:03:52;;;;;;;45.03;27.88;;;11.70;99.90;;;;;;5022724;28;20038;-78
2024/03/22 10:06:18;;;;;;;37.30;25.23;;;11.70;99.90;;;;;;5022571;28;20022;-79
2024/03/22 10:08:44;;;;;;;39.40;26.10;;;11.70;99.90;;;;;;5032780;28;20060;-78
2024/03/22 10:11:11;;;;;;;42.55;26.33;;;11.70;99.90;;;;;;5032714;28;20112;-78
2024/03/22 10:13:37;;;;;;;41.90;26.17;;;11.70;99.90;;;;;;5030409;28;20039;-81
2024/03/22 10:16:02;;;;;;;43.00;25.65;;;11.70;99.90;;;;;;5023116;28;20026;-80
2024/03/22 10:18:28;;;;;;;43.85;25.95;;;11.70;99.90;;;;;;5014322;28;20018;-80
2024/03/22 10:21:01;;;;;;;36.17;23.15;;;11.60;99.90;;;;;;5014915;28;20159;-78
2024/03/22 10:23:28;;;;;;;40.50;25.00;;;11.60;99.90;;;;;;5022695;28;20030;-79
2024/03/22 10:25:55;;;;;;;38.95;23.90;;;11.60;99.90;;;;;;5025238;28;20100;-79
2024/03/22 10:28:21;;;;;;;36.65;22.77;;;11.70;99.90;;;;;;5015811;28;20026;-79
2024/03/22 10:30:50;;;;;;;36.50;22.02;;;11.70;99.90;;;;;;5025156;28;20021;-78
2024/03/22 10:33:16;;;;;;;39.08;24.13;;;11.70;99.90;;;;;;5022422;28;20041;-79
2024/03/22 10:35:44;;;;;;;39.10;23.42;;;11.70;99.90;;;;;;5014010;28;20105;-79
2024/03/22 10:38:12;;;;;;;39.53;24.50;;;11.70;99.90;;;;;;5016001;28;20052;-78
2024/03/22 10:40:40;;;;;;;39.83;23.02;;;11.60;99.90;;;;;;5028880;28;20058;-78
2024/03/22 10:43:06;;;;;;;37.83;25.75;;;11.60;99.90;;;;;;5013738;28;20053;-79
2024/03/22 10:45:33;;;;;;;38.80;23.27;;;11.60;99.90;;;;;;5028815;28;20481;-78
2024/03/22 10:48:02;;;;;;;37.67;22.25;;;11.50;99.90;;;;;;5013677;28;20061;-78
2024/03/22 10:50:29;;;;;;;37.55;22.48;;;11.60;99.90;;;;;;5012183;28;20039;-78
2024/03/22 10:53:01;;;;;;;35.55;22.83;;;11.60;99.90;;;;;;5028610;28;20022;-78
2024/03/22 10:55:32;;;;;;;40.13;24.60;;;11.60;99.90;;;;;;5028401;28;20033;-79
2024/03/22 10:57:58;;;;;;;36.88;23.20;;;11.60;99.90;;;;;;5029303;28;20033;-79
2024/03/22 11:00:35;;;;;;;35.67;22.92;;;11.50;99.90;;;;;;5020961;28;20413;-78
2024/03/22 11:03:04;;;;;;;37.20;22.63;;;11.60;99.90;;;;;;5013578;28;20067;-79
2024/03/22 11:05:30;;;;;;;32.38;20.98;;;11.50;99.90;;;;;;5030694;28;20385;-80
2024/03/22 11:08:05;;;;;;;33.75;21.75;;;11.50;99.90;;;;;;5013348;28;20030;-79
2024/03/22 11:10:34;;;;;;;31.95;21.60;;;11.50;99.90;;;;;;5016190;28;20018;-78
2024/03/22 11:13:04;;;;;;;30.05;21.10;;;11.50;99.90;;;;;;5028887;28;20511;-79
2024/03/22 11:15:30;;;;;;;27.73;19.40;;;11.50;99.90;;;;;;5028390;28;20033;-79
2024/03/22 11:17:57;;;;;;;27.05;18.40;;;11.40;99.90;;;;;;5023303;28;20033;-78
2024/03/22 11:20:22;;;;;;;28.48;17.90;;;11.50;99.90;;;;;;5025806;28;20026;-78
2024/03/22 11:22:48;;;;;;;28.08;18.77;;;11.50;99.90;;;;;;5028451;28;20528;-79
2024/03/22 11:25:13;;;;;;;29.00;18.85;;;11.40;99.90;;;;;;5014478;28;20018;-79
2024/03/22 11:27:39;;;;;;;29.77;17.55;;;11.40;99.90;;;;;;5026886;28;20040;-79
2024/03/22 11:30:05;;;;;;;22.35;15.18;;;11.40;99.90;;;;;;5029871;28;20472;-78
2024/03/22 11:32:31;;;;;;;23.02;14.73;;;11.40;99.90;;;;;;5027563;28;20440;-78
2024/03/22 11:34:57;;;;;;;19.10;13.52;;;11.40;99.90;;;;;;5019851;28;20108;-78
2024/03/22 11:37:23;;;;;;;18.58;12.23;;;11.30;99.90;;;;;;5024740;28;20034;-78
2024/03/22 11:39:49;;;;;;;19.05;12.52;;;11.30;99.90;;;;;;5030087;28;20057;-79
2024/03/22 11:42:16;;;;;;;19.65;12.45;;;11.30;99.90;;;;;;5020297;28;20092;-79
2024/03/22 11:44:42;;;;;;;19.27;12.48;;;11.30;99.90;;;;;;5029399;28;20113;-78
2024/03/22 11:47:08;;;;;;;21.70;14.68;;;11.30;99.90;;;;;;5027239;28;20108;-80
2024/03/22 11:49:35;;;;;;;19.80;13.68;;;11.40;99.90;;;;;;5028065;28;20480;-79
2024/03/22 11:52:01;;;;;;;20.70;12.63;;;11.40;99.90;;;;;;5019383;28;20032;-78
2024/03/22 11:54:26;;;;;;;19.77;13.60;;;11.40;99.90;;;;;;5024980;28;20114;-79
2024/03/22 11:56:55;;;;;;;19.42;12.73;;;11.40;99.90;;;;;;5027865;28;20025;-79
2024/03/22 11:59:21;;;;;;;18.52;12.40;;;11.40;99.90;;;;;;5028170;28;20018;-79
2024/03/22 12:01:51;;;;;;;18.75;10.98;;;11.40;99.90;;;;;;5014927;28;20026;-79
2024/03/22 12:04:17;;;;;;;17.75;11.32;;;11.40;99.90;;;;;;5020065;28;20030;-79
2024/03/22 12:06:46;;;;;;;15.93;11.10;;;11.40;99.90;;;;;;5011634;28;20109;-79
2024/03/22 12:09:13;;;;;;;13.05;9.18;;;11.40;99.90;;;;;;5027243;28;20041;-78
2024/03/22 12:11:40;;;;;;;12.35;8.93;;;11.50;99.90;;;;;;5021741;28;20091;-80
2024/03/22 12:14:06;;;;;;;13.50;9.55;;;11.50;99.90;;;;;;5017991;28;20477;-79
2024/03/22 12:16:32;;;;;;;13.40;8.75;;;11.60;99.90;;;;;;5023078;28;20038;-78
2024/03/22 12:18:58;;;;;;;13.60;9.13;;;11.50;99.90;;;;;;5020347;28;20401;-79
2024/03/22 12:21:24;;;;;;;13.77;9.38;;;11.50;99.90;;;;;;5028036;28;20026;-78